sensor_id;sensor_type;location;lat;lon;timestamp;temperature;humidity
9828;DHT22;4953;48.952;9.442;2022-09-28T04:02:26;9.90;99.90
9828;DHT22;4953;48.952;9.442;2022-09-28T04:04:53;10.00;99.90
9828;DHT22;4953;48.952;9.442;2022-09-28T04:07:20;10.00;99.90
9828;DHT22;4953;48.952;9.442;2022-09-28T04:09:47;9.90;99.90
9828;DHT22;4953;48.952;9.442;2022-09-28T04:12:14;9.90;99.90
9828;DHT22;4953;48.952;9.442;2022-09-28T04:14:41;9.90;99.90
9828;DHT22;4953;48.952;9.442;2022-09-28T04:17:07;9.90;99.90
9828;DHT22;4953;48.952;9.442;2022-09-28T04:19:36;9.90;99.90
9828;DHT22;4953;48.952;9.442;2022-09-28T04:22:02;10.00;99.90
9828;DHT22;4953;48.952;9.442;2022-09-28T04:24:29;9.90;99.90
9828;DHT22;4953;48.952;9.442;2022-09-28T04:26:56;10.00;99.90
9828;DHT22;4953;48.952;9.442;2022-09-28T04:29:43;10.00;99.90
9828;DHT22;4953;48.952;9.442;2022-09-28T04:32:09;9.90;99.90
9828;DHT22;4953;48.952;9.442;2022-09-28T04:34:38;9.90;99.90
9828;DHT22;4953;48.952;9.442;2022-09-28T04:37:04;9.90;99.90
9828;DHT22;4953;48.952;9.442;2022-09-28T04:39:31;9.90;99.90
9828;DHT22;4953;48.952;9.442;2022-09-28T04:41:58;9.90;99.90
9828;DHT22;4953;48.952;9.442;2022-09-28T04:44:25;9.90;99.90
9828;DHT22;4953;48.952;9.442;2022-09-28T04:46:58;9.80;99.90
9828;DHT22;4953;48.952;9.442;2022-09-28T04:49:25;9.80;99.90
9828;DHT22;4953;48.952;9.442;2022-09-28T04:51:53;9.80;99.90
9828;DHT22;4953;48.952;9.442;2022-09-28T04:54:20;9.80;99.90
9828;DHT22;4953;48.952;9.442;2022-09-28T04:56:47;9.80;99.90
9828;DHT22;4953;48.952;9.442;2022-09-28T04:59:13;9.80;99.90
9828;DHT22;4953;48.952;9.442;2022-09-28T05:01:40;9.70;99.90
9828;DHT22;4953;48.952;9.442;2022-09-28T05:04:07;9.70;99.90
9828;DHT22;4953;48.952;9.442;2022-09-28T05:06:34;9.60;99.90
9828;DHT22;4953;48.952;9.442;2022-09-28T05:09:02;9.60;99.90
9828;DHT22;4953;48.952;9.442;2022-09-28T05:11:29;9.70;99.90
9828;DHT22;4953;48.952;9.442;2022-09-28T05:13:56;9.70;99.90
9828;DHT22;4953;48.952;9.442;2022-09-28T05:16:23;9.70;99.90
9828;DHT22;4953;48.952;9.442;2022-09-28T05:18:54;9.70;99.90
9828;DHT22;4953;48.952;9.442;2022-09-28T05:21:20;9.70;99.90
9828;DHT22;4953;48.952;9.442;2022-09-28T05:23:50;9.80;99.90
9828;DHT22;4953;48.952;9.442;2022-09-28T05:26:21;9.90;99.90
9828;DHT22;4953;48.952;9.442;2022-09-28T05:28:49;9.90;99.90
9828;DHT22;4953;48.952;9.442;2022-09-28T05:31:16;9.90;99.90
9828;DHT22;4953;48.952;9.442;2022-09-28T05:33:43;9.90;99.90
9828;DHT22;4953;48.952;9.442;2022-09-28T05:36:09;9.90;99.90
9828;DHT22;4953;48.952;9.442;2022-09-28T05:38:36;9.90;99.90
9828;DHT22;4953;48.952;9.442;2022-09-28T05:41:04;9.90;99.90
9828;DHT22;4953;48.952;9.442;2022-09-28T05:43:32;9.80;99.90
9828;DHT22;4953;48.952;9.442;2022-09-28T05:45:59;9.80;99.90
9828;DHT22;4953;48.952;9.442;2022-09-28T05:48:26;9.80;99.90
9828;DHT22;4953;48.952;9.442;2022-09-28T05:50:53;9.80;99.90
9828;DHT22;4953;48.952;9.442;2022-09-28T05:53:20;9.70;99.90
9828;DHT22;4953;48.952;9.442;2022-09-28T05:55:47;9.70;99.90
9828;DHT22;4953;48.952;9.442;2022-09-28T05:58:14;9.70;99.90
9828;DHT22;4953;48.952;9.442;2022-09-28T06:00:43;9.70;99.90
9828;DHT22;4953;48.952;9.442;2022-09-28T06:03:11;9.70;99.90
9828;DHT22;4953;48.952;9.442;2022-09-28T06:05:38;9.80;99.90
9828;DHT22;4953;48.952;9.442;2022-09-28T06:08:06;9.80;99.90
9828;DHT22;4953;48.952;9.442;2022-09-28T06:10:34;9.80;99.90
9828;DHT22;4953;48.952;9.442;2022-09-28T06:13:01;9.80;99.90
9828;DHT22;4953;48.952;9.442;2022-09-28T06:15:29;9.80;99.90
9828;DHT22;4953;48.952;9.442;2022-09-28T06:17:59;9.80;99.90
9828;DHT22;4953;48.952;9.442;2022-09-28T06:20:27;9.80;99.90
9828;DHT22;4953;48.952;9.442;2022-09-28T06:22:55;9.80;99.90
9828;DHT22;4953;48.952;9.442;2022-09-28T06:25:22;9.80;99.90
9828;DHT22;4953;48.952;9.442;2022-09-28T06:27:56;9.80;99.90
9828;DHT22;4953;48.952;9.442;2022-09-28T06:30:27;9.80;99.90
9828;DHT22;4953;48.952;9.442;2022-09-28T06:32:56;9.80;99.90
9828;DHT22;4953;48.952;9.442;2022-09-28T06:35:26;9.80;99.90
9828;DHT22;4953;48.952;9.442;2022-09-28T06:37:55;9.80;99.90
9828;DHT22;4953;48.952;9.442;2022-09-28T06:40:22;9.80;99.90
9828;DHT22;4953;48.952;9.442;2022-09-28T06:42:56;9.70;99.90
9828;DHT22;4953;48.952;9.442;2022-09-28T06:45:23;9.70;99.90
9828;DHT22;4953;48.952;9.442;2022-09-28T06:47:55;9.60;99.90
9828;DHT22;4953;48.952;9.442;2022-09-28T06:50:24;9.70;99.90
9828;DHT22;4953;48.952;9.442;2022-09-28T06:52:52;9.70;99.90
9828;DHT22;4953;48.952;9.442;2022-09-28T06:55:20;9.70;99.90
9828;DHT22;4953;48.952;9.442;2022-09-28T06:57:47;9.70;99.90
9828;DHT22;4953;48.952;9.442;2022-09-28T07:00:21;9.70;99.90
9828;DHT22;4953;48.952;9.442;2022-09-28T07:02:48;9.70;99.90
9828;DHT22;4953;48.952;9.442;2022-09-28T07:05:15;9.70;99.90
9828;DHT22;4953;48.952;9.442;2022-09-28T07:07:47;9.70;99.90
9828;DHT22;4953;48.952;9.442;2022-09-28T07:10:14;9.70;99.90
9828;DHT22;4953;48.952;9.442;2022-09-28T07:12:41;9.70;99.90
9828;DHT22;4953;48.952;9.442;2022-09-28T07:15:08;9.70;99.90
9828;DHT22;4953;48.952;9.442;2022-09-28T07:17:36;9.70;99.90
9828;DHT22;4953;48.952;9.442;2022-09-28T07:20:03;9.70;99.90
9828;DHT22;4953;48.952;9.442;2022-09-28T07:22:30;9.70;99.90
9828;DHT22;4953;48.952;9.442;2022-09-28T07:25:00;9.70;99.90
9828;DHT22;4953;48.952;9.442;2022-09-28T07:27:27;9.80;99.90
9828;DHT22;4953;48.952;9.442;2022-09-28T07:29:54;9.80;99.90
9828;DHT22;4953;48.952;9.442;2022-09-28T07:32:22;9.80;99.90
9828;DHT22;4953;48.952;9.442;2022-09-28T07:34:51;9.80;99.90
9828;DHT22;4953;48.952;9.442;2022-09-28T07:37:18;9.80;99.90
9828;DHT22;4953;48.952;9.442;2022-09-28T07:39:45;9.90;99.90
9828;DHT22;4953;48.952;9.442;2022-09-28T07:42:31;9.90;99.90
9828;DHT22;4953;48.952;9.442;2022-09-28T07:44:58;10.00;99.90
9828;DHT22;4953;48.952;9.442;2022-09-28T07:47:25;10.00;99.90
9828;DHT22;4953;48.952;9.442;2022-09-28T07:49:52;9.90;99.90
9828;DHT22;4953;48.952;9.442;2022-09-28T07:52:21;9.90;99.90
9828;DHT22;4953;48.952;9.442;2022-09-28T07:54:49;10.00;99.90
9828;DHT22;4953;48.952;9.442;2022-09-28T07:57:17;10.00;99.90
9828;DHT22;4953;48.952;9.442;2022-09-28T07:59:46;10.00;99.90
9828;DHT22;4953;48.952;9.442;2022-09-28T08:02:13;10.00;99.90
9828;DHT22;4953;48.952;9.442;2022-09-28T08:04:40;10.00;99.90
9828;DHT22;4953;48.952;9.442;2022-09-28T08:07:08;10.10;99.90
9828;DHT22;4953;48.952;9.442;2022-09-28T08:09:36;10.00;99.90
9828;DHT22;4953;48.952;9.442;2022-09-28T08:12:03;10.00;99.90
9828;DHT22;4953;48.952;9.442;2022-09-28T08:14:30;10.00;99.90
9828;DHT22;4953;48.952;9.442;2022-09-28T08:17:03;10.10;99.90
9828;DHT22;4953;48.952;9.442;2022-09-28T08:19:31;10.10;99.90
9828;DHT22;4953;48.952;9.442;2022-09-28T08:22:31;10.10;99.90
9828;DHT22;4953;48.952;9.442;2022-09-28T08:24:57;10.10;99.90
9828;DHT22;4953;48.952;9.442;2022-09-28T08:27:24;10.20;99.90
9828;DHT22;4953;48.952;9.442;2022-09-28T08:29:50;10.20;99.90
9828;DHT22;4953;48.952;9.442;2022-09-28T08:32:19;10.30;99.90
9828;DHT22;4953;48.952;9.442;2022-09-28T08:34:46;10.30;99.90
9828;DHT22;4953;48.952;9.442;2022-09-28T08:37:12;10.40;99.90
9828;DHT22;4953;48.952;9.442;2022-09-28T08:39:39;10.40;99.90
9828;DHT22;4953;48.952;9.442;2022-09-28T08:42:16;10.40;99.90
9828;DHT22;4953;48.952;9.442;2022-09-28T08:44:48;10.40;99.90
9828;DHT22;4953;48.952;9.442;2022-09-28T08:47:22;10.50;99.90
9828;DHT22;4953;48.952;9.442;2022-09-28T08:50:15;10.50;99.90
9828;DHT22;4953;48.952;9.442;2022-09-28T08:52:45;10.50;99.90
9828;DHT22;4953;48.952;9.442;2022-09-28T08:55:16;10.50;99.90
9828;DHT22;4953;48.952;9.442;2022-09-28T08:57:47;10.50;99.90
9828;DHT22;4953;48.952;9.442;2022-09-28T09:00:19;10.60;99.90
9828;DHT22;4953;48.952;9.442;2022-09-28T09:02:48;10.60;99.90
9828;DHT22;4953;48.952;9.442;2022-09-28T09:05:18;10.60;99.90
9828;DHT22;4953;48.952;9.442;2022-09-28T09:07:59;10.70;99.90
9828;DHT22;4953;48.952;9.442;2022-09-28T09:10:46;10.70;99.90
9828;DHT22;4953;48.952;9.442;2022-09-28T09:13:31;10.80;99.90
9828;DHT22;4953;48.952;9.442;2022-09-28T09:16:08;10.80;99.90
9828;DHT22;4953;48.952;9.442;2022-09-28T09:18:42;10.80;99.90
9828;DHT22;4953;48.952;9.442;2022-09-28T09:21:14;10.80;99.90
9828;DHT22;4953;48.952;9.442;2022-09-28T09:23:51;10.80;99.90
9828;DHT22;4953;48.952;9.442;2022-09-28T09:26:26;10.80;99.90
9828;DHT22;4953;48.952;9.442;2022-09-28T09:29:21;10.80;99.90
9828;DHT22;4953;48.952;9.442;2022-09-28T09:32:14;10.90;99.90
9828;DHT22;4953;48.952;9.442;2022-09-28T09:35:07;10.90;99.90
9828;DHT22;4953;48.952;9.442;2022-09-28T09:37:57;10.90;99.90
9828;DHT22;4953;48.952;9.442;2022-09-28T09:40:37;10.90;99.90
9828;DHT22;4953;48.952;9.442;2022-09-28T09:43:29;10.90;99.90
9828;DHT22;4953;48.952;9.442;2022-09-28T09:46:09;10.90;99.90
9828;DHT22;4953;48.952;9.442;2022-09-28T09:48:41;10.80;99.90
9828;DHT22;4953;48.952;9.442;2022-09-28T09:51:17;10.80;99.90
9828;DHT22;4953;48.952;9.442;2022-09-28T09:53:49;10.80;99.90
9828;DHT22;4953;48.952;9.442;2022-09-28T09:56:19;10.90;99.90
9828;DHT22;4953;48.952;9.442;2022-09-28T09:58:51;11.00;99.90
9828;DHT22;4953;48.952;9.442;2022-09-28T10:01:26;11.00;99.90
9828;DHT22;4953;48.952;9.442;2022-09-28T10:03:56;11.10;99.90
9828;DHT22;4953;48.952;9.442;2022-09-28T10:06:29;11.20;99.90
9828;DHT22;4953;48.952;9.442;2022-09-28T10:09:00;11.20;99.90
9828;DHT22;4953;48.952;9.442;2022-09-28T10:11:32;11.20;99.90
9828;DHT22;4953;48.952;9.442;2022-09-28T10:14:01;11.20;99.90
9828;DHT22;4953;48.952;9.442;2022-09-28T10:16:29;11.20;99.90
9828;DHT22;4953;48.952;9.442;2022-09-28T10:19:00;11.30;99.90
9828;DHT22;4953;48.952;9.442;2022-09-28T10:21:29;11.30;99.90
9828;DHT22;4953;48.952;9.442;2022-09-28T10:23:57;11.40;99.90
9828;DHT22;4953;48.952;9.442;2022-09-28T10:26:29;11.40;99.90
9828;DHT22;4953;48.952;9.442;2022-09-28T10:29:00;11.40;99.90
9828;DHT22;4953;48.952;9.442;2022-09-28T10:31:39;11.40;99.90
9828;DHT22;4953;48.952;9.442;2022-09-28T10:34:07;11.40;99.90
9828;DHT22;4953;48.952;9.442;2022-09-28T10:36:45;11.40;99.90
9828;DHT22;4953;48.952;9.442;2022-09-28T10:39:32;11.50;99.90
9828;DHT22;4953;48.952;9.442;2022-09-28T10:42:05;11.50;99.90
9828;DHT22;4953;48.952;9.442;2022-09-28T10:44:42;11.60;99.90
9828;DHT22;4953;48.952;9.442;2022-09-28T10:47:16;11.70;99.90
9828;DHT22;4953;48.952;9.442;2022-09-28T10:49:46;11.70;99.90
9828;DHT22;4953;48.952;9.442;2022-09-28T10:52:36;11.80;99.90
9828;DHT22;4953;48.952;9.442;2022-09-28T10:55:24;11.80;99.90
9828;DHT22;4953;48.952;9.442;2022-09-28T10:57:51;11.90;99.90
9828;DHT22;4953;48.952;9.442;2022-09-28T11:00:33;12.00;99.90
9828;DHT22;4953;48.952;9.442;2022-09-28T11:03:02;12.00;99.90
9828;DHT22;4953;48.952;9.442;2022-09-28T11:05:30;12.00;99.90
9828;DHT22;4953;48.952;9.442;2022-09-28T11:08:02;12.00;99.90
9828;DHT22;4953;48.952;9.442;2022-09-28T11:10:31;11.90;99.90
9828;DHT22;4953;48.952;9.442;2022-09-28T11:12:58;11.90;99.90
9828;DHT22;4953;48.952;9.442;2022-09-28T11:15:28;11.90;99.90
9828;DHT22;4953;48.952;9.442;2022-09-28T11:18:17;11.90;99.90
9828;DHT22;4953;48.952;9.442;2022-09-28T11:20:44;11.90;99.90
9828;DHT22;4953;48.952;9.442;2022-09-28T11:23:20;11.90;99.90
9828;DHT22;4953;48.952;9.442;2022-09-28T11:25:58;11.90;99.90
9828;DHT22;4953;48.952;9.442;2022-09-28T11:28:30;11.90;99.90
9828;DHT22;4953;48.952;9.442;2022-09-28T11:31:01;11.90;99.90
9828;DHT22;4953;48.952;9.442;2022-09-28T11:33:35;11.90;99.90
9828;DHT22;4953;48.952;9.442;2022-09-28T11:36:19;11.90;99.90
9828;DHT22;4953;48.952;9.442;2022-09-28T11:39:01;12.00;99.90
9828;DHT22;4953;48.952;9.442;2022-09-28T11:41:42;12.10;99.90
9828;DHT22;4953;48.952;9.442;2022-09-28T11:44:34;12.30;99.90
9828;DHT22;4953;48.952;9.442;2022-09-28T11:47:14;12.50;99.90
9828;DHT22;4953;48.952;9.442;2022-09-28T11:49:46;12.60;99.90
9828;DHT22;4953;48.952;9.442;2022-09-28T11:52:17;12.70;99.90
9828;DHT22;4953;48.952;9.442;2022-09-28T11:54:52;12.80;99.90
9828;DHT22;4953;48.952;9.442;2022-09-28T11:57:25;12.90;99.90
9828;DHT22;4953;48.952;9.442;2022-09-28T12:00:00;13.10;99.90
9828;DHT22;4953;48.952;9.442;2022-09-28T12:02:32;13.10;99.90
9828;DHT22;4953;48.952;9.442;2022-09-28T12:05:10;13.00;99.90
9828;DHT22;4953;48.952;9.442;2022-09-28T12:07:43;13.10;99.90
9828;DHT22;4953;48.952;9.442;2022-09-28T12:10:17;13.10;99.90
9828;DHT22;4953;48.952;9.442;2022-09-28T12:12:50;13.10;99.90
9828;DHT22;4953;48.952;9.442;2022-09-28T12:15:22;13.10;99.90
9828;DHT22;4953;48.952;9.442;2022-09-28T12:17:53;13.20;99.90
9828;DHT22;4953;48.952;9.442;2022-09-28T12:20:25;13.30;99.90
9828;DHT22;4953;48.952;9.442;2022-09-28T12:23:02;13.20;99.90
9828;DHT22;4953;48.952;9.442;2022-09-28T12:25:39;13.30;99.90
9828;DHT22;4953;48.952;9.442;2022-09-28T12:28:14;13.30;99.90
9828;DHT22;4953;48.952;9.442;2022-09-28T12:30:44;13.20;99.90
9828;DHT22;4953;48.952;9.442;2022-09-28T12:33:14;13.20;99.90
9828;DHT22;4953;48.952;9.442;2022-09-28T12:35:52;13.10;99.90
9828;DHT22;4953;48.952;9.442;2022-09-28T12:38:43;13.20;99.90
9828;DHT22;4953;48.952;9.442;2022-09-28T12:41:21;13.20;99.90
9828;DHT22;4953;48.952;9.442;2022-09-28T12:44:02;13.30;99.90
9828;DHT22;4953;48.952;9.442;2022-09-28T12:46:40;13.30;99.90
9828;DHT22;4953;48.952;9.442;2022-09-28T12:49:28;13.30;99.90
9828;DHT22;4953;48.952;9.442;2022-09-28T12:52:03;13.30;99.90
9828;DHT22;4953;48.952;9.442;2022-09-28T12:54:51;13.40;99.90
9828;DHT22;4953;48.952;9.442;2022-09-28T12:57:41;13.40;99.90
9828;DHT22;4953;48.952;9.442;2022-09-28T13:00:13;13.50;99.90
9828;DHT22;4953;48.952;9.442;2022-09-28T13:08:35;13.70;99.90
9828;DHT22;4953;48.952;9.442;2022-09-28T13:11:07;13.80;99.90
9828;DHT22;4953;48.952;9.442;2022-09-28T13:13:47;13.80;99.90
9828;DHT22;4953;48.952;9.442;2022-09-28T13:16:21;13.80;99.90
9828;DHT22;4953;48.952;9.442;2022-09-28T13:18:59;13.80;99.90
9828;DHT22;4953;48.952;9.442;2022-09-28T13:21:33;13.80;99.90
9828;DHT22;4953;48.952;9.442;2022-09-28T13:24:02;13.70;99.90
9828;DHT22;4953;48.952;9.442;2022-09-28T13:26:33;13.70;99.90
9828;DHT22;4953;48.952;9.442;2022-09-28T13:29:09;13.60;99.90
9828;DHT22;4953;48.952;9.442;2022-09-28T13:31:44;13.60;99.90
9828;DHT22;4953;48.952;9.442;2022-09-28T13:34:16;13.60;99.90
9828;DHT22;4953;48.952;9.442;2022-09-28T13:37:07;13.60;99.90
9828;DHT22;4953;48.952;9.442;2022-09-28T13:39:45;13.60;99.90
9828;DHT22;4953;48.952;9.442;2022-09-28T13:45:33;13.70;99.90
9828;DHT22;4953;48.952;9.442;2022-09-28T13:48:11;13.80;99.90
9828;DHT22;4953;48.952;9.442;2022-09-28T13:51:10;13.90;99.90
9828;DHT22;4953;48.952;9.442;2022-09-28T13:54:01;14.00;99.90
9828;DHT22;4953;48.952;9.442;2022-09-28T13:56:35;14.10;99.90
9828;DHT22;4953;48.952;9.442;2022-09-28T13:59:13;14.20;99.90
9828;DHT22;4953;48.952;9.442;2022-09-28T14:01:51;14.20;99.90
9828;DHT22;4953;48.952;9.442;2022-09-28T14:04:21;14.20;99.90
9828;DHT22;4953;48.952;9.442;2022-09-28T14:06:50;14.10;99.90
9828;DHT22;4953;48.952;9.442;2022-09-28T14:09:46;14.10;99.90
9828;DHT22;4953;48.952;9.442;2022-09-28T14:12:28;14.00;99.90
9828;DHT22;4953;48.952;9.442;2022-09-28T14:14:55;14.10;99.90
9828;DHT22;4953;48.952;9.442;2022-09-28T14:17:56;14.10;99.90
9828;DHT22;4953;48.952;9.442;2022-09-28T14:20:26;14.10;99.90
9828;DHT22;4953;48.952;9.442;2022-09-28T14:26:04;14.00;99.90
9828;DHT22;4953;48.952;9.442;2022-09-28T14:28:48;14.00;99.90
9828;DHT22;4953;48.952;9.442;2022-09-28T14:31:24;14.00;99.90
9828;DHT22;4953;48.952;9.442;2022-09-28T14:33:58;13.90;99.90
9828;DHT22;4953;48.952;9.442;2022-09-28T14:36:29;13.80;99.90
9828;DHT22;4953;48.952;9.442;2022-09-28T14:39:21;13.80;99.90
9828;DHT22;4953;48.952;9.442;2022-09-28T14:42:11;13.80;99.90
9828;DHT22;4953;48.952;9.442;2022-09-28T14:48:14;13.80;99.90
9828;DHT22;4953;48.952;9.442;2022-09-28T14:50:45;13.70;99.90
9828;DHT22;4953;48.952;9.442;2022-09-28T14:53:17;13.70;99.90
9828;DHT22;4953;48.952;9.442;2022-09-28T14:55:47;13.70;99.90
9828;DHT22;4953;48.952;9.442;2022-09-28T14:58:18;13.80;99.90
9828;DHT22;4953;48.952;9.442;2022-09-28T15:00:48;14.10;99.90
9828;DHT22;4953;48.952;9.442;2022-09-28T15:03:16;14.30;99.90
9828;DHT22;4953;48.952;9.442;2022-09-28T15:05:45;14.60;99.90
9828;DHT22;4953;48.952;9.442;2022-09-28T15:08:12;14.80;99.90
9828;DHT22;4953;48.952;9.442;2022-09-28T15:10:44;15.00;99.90
9828;DHT22;4953;48.952;9.442;2022-09-28T15:13:23;15.20;99.90
9828;DHT22;4953;48.952;9.442;2022-09-28T15:15:54;15.40;99.90
9828;DHT22;4953;48.952;9.442;2022-09-28T15:18:50;15.50;99.90
9828;DHT22;4953;48.952;9.442;2022-09-28T15:21:22;15.40;99.90
9828;DHT22;4953;48.952;9.442;2022-09-28T15:23:49;15.30;99.90
9828;DHT22;4953;48.952;9.442;2022-09-28T15:26:22;15.30;99.90
9828;DHT22;4953;48.952;9.442;2022-09-28T15:28:52;15.20;99.90
9828;DHT22;4953;48.952;9.442;2022-09-28T15:31:20;15.10;99.90
9828;DHT22;4953;48.952;9.442;2022-09-28T15:33:48;14.90;99.90
9828;DHT22;4953;48.952;9.442;2022-09-28T15:36:37;14.50;99.90
9828;DHT22;4953;48.952;9.442;2022-09-28T15:39:09;14.30;99.90
9828;DHT22;4953;48.952;9.442;2022-09-28T15:41:38;14.20;99.90
9828;DHT22;4953;48.952;9.442;2022-09-28T15:44:27;14.10;99.90
9828;DHT22;4953;48.952;9.442;2022-09-28T15:47:09;14.10;99.90
9828;DHT22;4953;48.952;9.442;2022-09-28T15:49:44;14.00;99.90
9828;DHT22;4953;48.952;9.442;2022-09-28T15:52:25;13.90;99.90
9828;DHT22;4953;48.952;9.442;2022-09-28T15:54:53;13.80;99.90
9828;DHT22;4953;48.952;9.442;2022-09-28T15:57:36;13.70;99.90
9828;DHT22;4953;48.952;9.442;2022-09-28T16:00:05;13.60;99.90
9828;DHT22;4953;48.952;9.442;2022-09-28T16:02:34;13.60;99.90
9828;DHT22;4953;48.952;9.442;2022-09-28T16:05:01;13.60;99.90
9828;DHT22;4953;48.952;9.442;2022-09-28T16:07:36;13.60;99.90
9828;DHT22;4953;48.952;9.442;2022-09-28T16:10:32;13.70;99.90
9828;DHT22;4953;48.952;9.442;2022-09-28T16:13:11;13.80;99.90
9828;DHT22;4953;48.952;9.442;2022-09-28T16:15:40;13.80;99.90
9828;DHT22;4953;48.952;9.442;2022-09-28T16:18:16;13.80;99.90
9828;DHT22;4953;48.952;9.442;2022-09-28T16:20:46;13.80;99.90
9828;DHT22;4953;48.952;9.442;2022-09-28T16:23:22;13.90;99.90
9828;DHT22;4953;48.952;9.442;2022-09-28T16:25:51;13.90;99.90
9828;DHT22;4953;48.952;9.442;2022-09-28T16:28:47;13.90;99.90
9828;DHT22;4953;48.952;9.442;2022-09-28T16:31:27;13.90;99.90
9828;DHT22;4953;48.952;9.442;2022-09-28T16:33:58;13.80;99.90
9828;DHT22;4953;48.952;9.442;2022-09-28T16:36:28;13.80;99.90
9828;DHT22;4953;48.952;9.442;2022-09-28T16:38:56;13.80;99.90
9828;DHT22;4953;48.952;9.442;2022-09-28T16:41:25;13.70;99.90
9828;DHT22;4953;48.952;9.442;2022-09-28T16:43:56;13.80;99.90
9828;DHT22;4953;48.952;9.442;2022-09-28T16:46:30;13.80;99.90
9828;DHT22;4953;48.952;9.442;2022-09-28T16:48:58;13.70;99.90
9828;DHT22;4953;48.952;9.442;2022-09-28T16:51:26;13.70;99.90
9828;DHT22;4953;48.952;9.442;2022-09-28T16:53:53;13.60;99.90
9828;DHT22;4953;48.952;9.442;2022-09-28T16:56:55;13.60;99.90
9828;DHT22;4953;48.952;9.442;2022-09-28T16:59:21;13.50;99.90
9828;DHT22;4953;48.952;9.442;2022-09-28T17:01:48;13.50;99.90
9828;DHT22;4953;48.952;9.442;2022-09-28T17:04:15;13.40;99.90
9828;DHT22;4953;48.952;9.442;2022-09-28T17:06:42;13.40;99.90
9828;DHT22;4953;48.952;9.442;2022-09-28T17:09:11;13.30;99.90
9828;DHT22;4953;48.952;9.442;2022-09-28T17:11:38;13.30;99.90
9828;DHT22;4953;48.952;9.442;2022-09-28T17:14:06;13.20;99.90
9828;DHT22;4953;48.952;9.442;2022-09-28T17:16:33;13.20;99.90
9828;DHT22;4953;48.952;9.442;2022-09-28T17:19:01;13.10;99.90
9828;DHT22;4953;48.952;9.442;2022-09-28T17:21:27;13.10;99.90
9828;DHT22;4953;48.952;9.442;2022-09-28T17:23:54;13.00;99.90
9828;DHT22;4953;48.952;9.442;2022-09-28T17:26:24;13.00;99.90
9828;DHT22;4953;48.952;9.442;2022-09-28T17:28:54;12.90;99.90
9828;DHT22;4953;48.952;9.442;2022-09-28T17:31:23;12.90;99.90
9828;DHT22;4953;48.952;9.442;2022-09-28T17:33:50;12.80;99.90
9828;DHT22;4953;48.952;9.442;2022-09-28T17:36:17;12.80;99.90
9828;DHT22;4953;48.952;9.442;2022-09-28T17:38:46;12.70;99.90
9828;DHT22;4953;48.952;9.442;2022-09-28T17:41:15;12.70;99.90
9828;DHT22;4953;48.952;9.442;2022-09-28T17:43:42;12.70;99.90
9828;DHT22;4953;48.952;9.442;2022-09-28T17:46:25;12.60;99.90
9828;DHT22;4953;48.952;9.442;2022-09-28T17:48:53;12.50;99.90
9828;DHT22;4953;48.952;9.442;2022-09-28T17:51:21;12.50;99.90
9828;DHT22;4953;48.952;9.442;2022-09-28T17:53:48;12.40;99.90
9828;DHT22;4953;48.952;9.442;2022-09-28T17:56:15;12.40;99.90
9828;DHT22;4953;48.952;9.442;2022-09-28T17:58:41;12.40;99.90
9828;DHT22;4953;48.952;9.442;2022-09-28T18:01:09;12.40;99.90
9828;DHT22;4953;48.952;9.442;2022-09-28T18:03:37;12.30;99.90
9828;DHT22;4953;48.952;9.442;2022-09-28T18:06:05;12.30;99.90
9828;DHT22;4953;48.952;9.442;2022-09-28T18:08:33;12.30;99.90
9828;DHT22;4953;48.952;9.442;2022-09-28T18:11:02;12.30;99.90
9828;DHT22;4953;48.952;9.442;2022-09-28T18:13:29;12.20;99.90
9828;DHT22;4953;48.952;9.442;2022-09-28T18:15:56;12.10;99.90
9828;DHT22;4953;48.952;9.442;2022-09-28T18:18:24;12.10;99.90
9828;DHT22;4953;48.952;9.442;2022-09-28T18:20:52;12.10;99.90
9828;DHT22;4953;48.952;9.442;2022-09-28T18:23:19;12.00;99.90
9828;DHT22;4953;48.952;9.442;2022-09-28T18:25:46;12.00;99.90
9828;DHT22;4953;48.952;9.442;2022-09-28T18:28:13;12.00;99.90
9828;DHT22;4953;48.952;9.442;2022-09-28T18:30:42;12.00;99.90
9828;DHT22;4953;48.952;9.442;2022-09-28T18:33:10;12.00;99.90
9828;DHT22;4953;48.952;9.442;2022-09-28T18:35:37;12.00;99.90
9828;DHT22;4953;48.952;9.442;2022-09-28T18:38:06;11.90;99.90
9828;DHT22;4953;48.952;9.442;2022-09-28T18:40:34;11.90;99.90
9828;DHT22;4953;48.952;9.442;2022-09-28T18:43:01;11.90;99.90
9828;DHT22;4953;48.952;9.442;2022-09-28T18:45:27;11.80;99.90
9828;DHT22;4953;48.952;9.442;2022-09-28T18:47:54;11.80;99.90
9828;DHT22;4953;48.952;9.442;2022-09-28T18:50:21;11.80;99.90
9828;DHT22;4953;48.952;9.442;2022-09-28T18:52:48;11.80;99.90
9828;DHT22;4953;48.952;9.442;2022-09-28T18:55:16;11.70;99.90
9828;DHT22;4953;48.952;9.442;2022-09-28T18:57:43;11.60;99.90
9828;DHT22;4953;48.952;9.442;2022-09-28T19:00:12;11.60;99.90
9828;DHT22;4953;48.952;9.442;2022-09-28T19:02:39;11.50;99.90
9828;DHT22;4953;48.952;9.442;2022-09-28T19:05:07;11.50;99.90
9828;DHT22;4953;48.952;9.442;2022-09-28T19:07:34;11.50;99.90
9828;DHT22;4953;48.952;9.442;2022-09-28T19:10:01;11.50;99.90
9828;DHT22;4953;48.952;9.442;2022-09-28T19:12:29;11.50;99.90
9828;DHT22;4953;48.952;9.442;2022-09-28T19:14:56;11.50;99.90
9828;DHT22;4953;48.952;9.442;2022-09-28T19:17:24;11.50;99.90
9828;DHT22;4953;48.952;9.442;2022-09-28T19:19:50;11.50;99.90
9828;DHT22;4953;48.952;9.442;2022-09-28T19:22:17;11.60;99.90
9828;DHT22;4953;48.952;9.442;2022-09-28T19:24:44;11.50;99.90
9828;DHT22;4953;48.952;9.442;2022-09-28T19:27:11;11.50;99.90
9828;DHT22;4953;48.952;9.442;2022-09-28T19:29:39;11.40;99.90
9828;DHT22;4953;48.952;9.442;2022-09-28T19:32:06;11.50;99.90
9828;DHT22;4953;48.952;9.442;2022-09-28T19:34:32;11.50;99.90
9828;DHT22;4953;48.952;9.442;2022-09-28T19:36:59;11.50;99.90
9828;DHT22;4953;48.952;9.442;2022-09-28T19:39:28;11.50;99.90
9828;DHT22;4953;48.952;9.442;2022-09-28T19:41:55;11.40;99.90
9828;DHT22;4953;48.952;9.442;2022-09-28T19:44:25;11.40;99.90
9828;DHT22;4953;48.952;9.442;2022-09-28T19:46:55;11.30;99.90
9828;DHT22;4953;48.952;9.442;2022-09-28T19:49:24;11.30;99.90
9828;DHT22;4953;48.952;9.442;2022-09-28T19:51:52;11.30;99.90
9828;DHT22;4953;48.952;9.442;2022-09-28T19:54:21;11.30;99.90
9828;DHT22;4953;48.952;9.442;2022-09-28T19:56:51;11.20;99.90
9828;DHT22;4953;48.952;9.442;2022-09-28T19:59:18;11.30;99.90
9828;DHT22;4953;48.952;9.442;2022-09-28T20:01:46;11.30;99.90
9828;DHT22;4953;48.952;9.442;2022-09-28T20:04:14;11.20;99.90
9828;DHT22;4953;48.952;9.442;2022-09-28T20:06:41;11.30;99.90
9828;DHT22;4953;48.952;9.442;2022-09-28T20:09:08;11.20;99.90
9828;DHT22;4953;48.952;9.442;2022-09-28T20:11:35;11.20;99.90
9828;DHT22;4953;48.952;9.442;2022-09-28T20:14:06;11.20;99.90
9828;DHT22;4953;48.952;9.442;2022-09-28T20:16:34;11.10;99.90
9828;DHT22;4953;48.952;9.442;2022-09-28T20:19:02;11.10;99.90
9828;DHT22;4953;48.952;9.442;2022-09-28T20:21:33;11.00;99.90
9828;DHT22;4953;48.952;9.442;2022-09-28T20:24:00;11.00;99.90
9828;DHT22;4953;48.952;9.442;2022-09-28T20:26:27;10.90;99.90
9828;DHT22;4953;48.952;9.442;2022-09-28T20:28:54;10.90;99.90
9828;DHT22;4953;48.952;9.442;2022-09-28T20:31:23;10.90;99.90
9828;DHT22;4953;48.952;9.442;2022-09-28T20:33:50;10.90;99.90
9828;DHT22;4953;48.952;9.442;2022-09-28T20:36:19;10.80;99.90
9828;DHT22;4953;48.952;9.442;2022-09-28T20:38:49;10.80;99.90
9828;DHT22;4953;48.952;9.442;2022-09-28T20:41:18;10.80;99.90
9828;DHT22;4953;48.952;9.442;2022-09-28T20:43:47;10.80;99.90
9828;DHT22;4953;48.952;9.442;2022-09-28T20:46:15;10.70;99.90
9828;DHT22;4953;48.952;9.442;2022-09-28T20:48:44;10.70;99.90
9828;DHT22;4953;48.952;9.442;2022-09-28T20:51:15;10.70;99.90